Time;durP1;ratioP1;P1;durP2;ratioP2;P2;SDS_P1;SDS_P2;PMS_P1;PMS_P2;Temp;Humidity;BMP_temperature;BMP_pressure;BME280_temperature;BME280_humidity;BME280_pressure;Samples;Min_cycle;Max_cycle;Signal;HPM_P1;HPM_P2
2021/10/18 00:00:20;;;;;;;13.68;7.80;;;;;;;11.41;74.28;102247.91;5054573;28;20029;-62
2021/10/18 00:02:45;;;;;;;12.95;7.30;;;;;;;11.40;74.08;102258.56;5054329;28;20025;-62
2021/10/18 00:05:15;;;;;;;12.23;7.55;;;;;;;11.38;74.19;102252.41;5054981;28;20036;-61
2021/10/18 00:07:40;;;;;;;11.48;7.75;;;;;;;11.37;74.31;102250.66;5054274;28;20032;-62
2021/10/18 00:10:07;;;;;;;11.95;7.13;;;;;;;11.36;74.33;102263.06;5073718;28;20029;-62
2021/10/18 00:12:32;;;;;;;15.02;7.85;;;;;;;11.34;74.35;102254.25;5074445;28;20020;-62
2021/10/18 00:14:58;;;;;;;13.05;7.53;;;;;;;11.33;74.32;102260.50;5074319;28;20094;-63
2021/10/18 00:17:23;;;;;;;10.48;7.38;;;;;;;11.32;74.36;102258.75;5070686;28;20048;-62
2021/10/18 00:19:49;;;;;;;13.05;8.13;;;;;;;11.34;74.34;102264.03;5065872;28;20496;-62
2021/10/18 00:22:15;;;;;;;16.30;8.00;;;;;;;11.29;74.56;102265.00;5073741;28;20028;-62
2021/10/18 00:24:40;;;;;;;14.05;8.00;;;;;;;11.29;74.62;102264.13;5074078;28;20107;-62
2021/10/18 00:27:05;;;;;;;12.25;8.07;;;;;;;11.26;74.77;102270.38;5053001;28;20148;-61
2021/10/18 00:29:31;;;;;;;14.38;7.47;;;;;;;11.26;74.77;102264.22;5071624;28;20024;-61
2021/10/18 00:31:56;;;;;;;12.15;7.90;;;;;;;11.27;74.60;102272.13;5073846;28;20024;-62
2021/10/18 00:34:21;;;;;;;12.50;7.78;;;;;;;11.26;74.60;102274.81;5073800;28;20432;-62
2021/10/18 00:36:47;;;;;;;13.13;7.55;;;;;;;11.22;74.67;102271.38;5071638;28;20028;-62
2021/10/18 00:39:12;;;;;;;13.82;7.57;;;;;;;11.20;74.83;102274.97;5073013;28;20032;-62
2021/10/18 00:41:37;;;;;;;15.88;8.07;;;;;;;11.19;75.04;102279.41;5071884;28;20107;-62
2021/10/18 00:44:03;;;;;;;16.25;8.30;;;;;;;11.18;75.12;102277.66;5073670;28;20407;-62
2021/10/18 00:46:29;;;;;;;13.18;7.82;;;;;;;11.17;75.06;102277.69;5073470;28;20151;-61
2021/10/18 00:48:55;;;;;;;13.98;7.90;;;;;;;11.14;75.39;102271.56;5071386;28;20103;-61
2021/10/18 00:51:22;;;;;;;15.70;8.07;;;;;;;11.13;75.15;102269.81;5071422;28;20025;-62
2021/10/18 00:53:49;;;;;;;15.15;7.82;;;;;;;11.15;75.08;102273.31;5057951;28;20032;-62
2021/10/18 00:56:15;;;;;;;15.30;7.95;;;;;;;11.15;74.97;102273.31;5053404;28;20033;-61
2021/10/18 00:58:42;;;;;;;14.48;7.72;;;;;;;11.13;74.69;102274.25;5054308;28;20481;-62
2021/10/18 01:01:08;;;;;;;14.90;7.63;;;;;;;11.12;75.36;102268.06;5055238;28;20031;-62
2021/10/18 01:03:35;;;;;;;12.27;7.47;;;;;;;11.11;75.01;102266.34;5073176;28;20032;-62
2021/10/18 01:06:01;;;;;;;17.60;7.50;;;;;;;11.08;74.88;102271.69;5073032;28;20031;-62
2021/10/18 01:08:26;;;;;;;12.23;8.13;;;;;;;11.08;74.43;102263.75;5072929;28;20025;-62
2021/10/18 01:10:51;;;;;;;12.48;7.43;;;;;;;11.07;74.42;102269.09;5071004;28;20047;-62
2021/10/18 01:13:17;;;;;;;14.15;7.70;;;;;;;11.06;74.83;102272.63;5071162;28;20056;-62
2021/10/18 01:15:42;;;;;;;12.27;6.90;;;;;;;11.06;74.72;102270.00;5064044;28;20039;-62
2021/10/18 01:18:08;;;;;;;15.15;8.00;;;;;;;11.03;74.87;102268.28;5052659;28;20025;-62
2021/10/18 01:20:35;;;;;;;12.85;7.18;;;;;;;11.05;74.39;102269.13;5054972;28;20033;-62
2021/10/18 01:23:01;;;;;;;11.02;6.90;;;;;;;11.05;74.72;102273.53;5059789;28;20051;-61
2021/10/18 01:25:27;;;;;;;12.00;7.35;;;;;;;11.04;74.85;102269.19;5072758;28;20472;-61
2021/10/18 01:27:52;;;;;;;13.57;7.38;;;;;;;11.00;75.41;102252.47;5072909;28;20103;-62
2021/10/18 01:30:18;;;;;;;12.75;7.43;;;;;;;10.95;75.50;102257.88;5071103;28;20052;-61
2021/10/18 01:32:43;;;;;;;10.65;7.47;;;;;;;10.88;76.03;102256.28;5071323;28;20055;-62
2021/10/18 01:35:10;;;;;;;14.90;7.47;;;;;;;10.89;75.95;102251.84;5072260;28;20028;-62
2021/10/18 01:37:36;;;;;;;14.55;7.50;;;;;;;10.85;76.21;102256.34;5072607;28;20028;-61
2021/10/18 01:40:14;;;;;;;12.45;8.02;;;;;;;10.85;76.26;102247.53;5071498;28;20029;-62
2021/10/18 01:42:40;;;;;;;13.70;7.38;;;;;;;10.80;76.72;102247.63;5070438;28;20040;-62
2021/10/18 01:45:07;;;;;;;9.80;7.03;;;;;;;10.74;76.98;102243.34;5070936;28;20039;-62
2021/10/18 01:47:32;;;;;;;13.63;7.43;;;;;;;10.71;77.02;102234.59;5072379;28;20035;-60
2021/10/18 01:49:58;;;;;;;12.52;7.95;;;;;;;10.64;77.47;102233.88;5072683;28;20024;-62
2021/10/18 01:52:23;;;;;;;13.80;7.72;;;;;;;10.54;78.02;102235.84;5065696;28;20035;-62
2021/10/18 01:54:49;;;;;;;13.23;7.68;;;;;;;10.46;78.11;102238.66;5072393;28;20032;-62
2021/10/18 01:57:15;;;;;;;15.02;7.95;;;;;;;10.41;78.30;102234.34;5072478;28;20029;-61
2021/10/18 01:59:40;;;;;;;12.80;7.95;;;;;;;10.37;78.48;102238.88;5072409;28;20025;-62
2021/10/18 02:02:06;;;;;;;13.35;8.35;;;;;;;10.31;78.58;102244.28;5070320;28;20071;-62
2021/10/18 02:04:31;;;;;;;13.52;8.50;;;;;;;10.24;78.88;102232.06;5070684;28;20036;-62
2021/10/18 02:06:57;;;;;;;13.43;8.15;;;;;;;10.19;78.58;102240.06;5072361;28;20435;-62
2021/10/18 02:09:22;;;;;;;16.55;8.50;;;;;;;10.17;78.54;102242.75;5072089;28;20024;-62
2021/10/18 02:11:48;;;;;;;13.45;8.27;;;;;;;10.13;78.66;102238.44;5072190;28;20024;-62
2021/10/18 02:14:13;;;;;;;13.65;8.45;;;;;;;10.10;78.78;102246.47;5068167;28;20033;-61
2021/10/18 02:16:38;;;;;;;15.95;8.23;;;;;;;10.09;78.52;102228.81;5072178;28;20025;-62
2021/10/18 02:19:04;;;;;;;15.43;8.35;;;;;;;10.04;78.64;102233.34;5072329;28;20036;-62
2021/10/18 02:21:29;;;;;;;15.18;9.27;;;;;;;9.98;78.87;102228.16;5072236;28;20013;-62
2021/10/18 02:23:54;;;;;;;14.65;8.82;;;;;;;9.97;79.51;102234.34;5068510;28;20064;-62
2021/10/18 02:26:19;;;;;;;15.70;8.18;;;;;;;9.92;79.30;102225.63;5071583;28;20079;-62
2021/10/18 02:28:45;;;;;;;13.07;7.82;;;;;;;9.87;79.32;102230.16;5072209;28;20482;-62
2021/10/18 02:31:10;;;;;;;14.60;8.10;;;;;;;9.80;79.76;102230.25;5072336;28;20028;-63
2021/10/18 02:33:36;;;;;;;15.32;8.27;;;;;;;9.73;79.75;102227.78;5072214;28;20029;-62
2021/10/18 02:36:01;;;;;;;14.55;8.90;;;;;;;9.67;80.04;102226.13;5067366;28;20082;-62
2021/10/18 02:38:26;;;;;;;15.85;8.15;;;;;;;9.57;81.00;102221.91;5071782;28;20020;-62
2021/10/18 02:40:51;;;;;;;14.18;8.68;;;;;;;9.51;81.32;102226.41;5071941;28;20028;-62
2021/10/18 02:43:17;;;;;;;17.50;8.75;;;;;;;9.47;81.50;102229.13;5072121;28;20021;-62
2021/10/18 02:45:42;;;;;;;16.42;10.77;;;;;;;9.43;81.81;102220.38;5067743;28;20051;-62
2021/10/18 02:48:08;;;;;;;16.80;10.25;;;;;;;9.37;82.38;102220.47;5062550;28;20035;-62
2021/10/18 02:50:33;;;;;;;16.40;9.13;;;;;;;9.27;82.51;102216.25;5072346;28;20036;-62
2021/10/18 02:52:58;;;;;;;14.95;9.38;;;;;;;9.17;82.78;102216.41;5075589;28;20432;-62
2021/10/18 02:55:24;;;;;;;16.80;9.88;;;;;;;9.09;83.85;102215.69;5073682;28;20025;-61
2021/10/18 02:57:49;;;;;;;17.13;10.38;;;;;;;9.00;84.57;102221.09;5073042;28;20037;-62
2021/10/18 03:00:14;;;;;;;14.75;10.15;;;;;;;8.95;84.37;102213.25;5075783;28;20024;-62
2021/10/18 03:02:40;;;;;;;16.77;10.52;;;;;;;8.93;85.49;102230.91;5075605;28;20035;-62
2021/10/18 03:05:06;;;;;;;19.13;10.75;;;;;;;8.88;85.44;102221.31;5067810;28;20036;-61
2021/10/18 03:07:31;;;;;;;19.90;11.75;;;;;;;8.83;85.96;102238.06;5068211;28;20140;-62
2021/10/18 03:09:56;;;;;;;17.80;11.68;;;;;;;8.80;86.45;102235.50;5075377;28;20464;-62
2021/10/18 03:12:22;;;;;;;16.30;10.32;;;;;;;8.74;86.48;102232.09;5075127;28;20032;-62
2021/10/18 03:14:47;;;;;;;21.27;11.70;;;;;;;8.71;86.96;102240.91;5073600;28;20067;-62
2021/10/18 03:17:12;;;;;;;18.67;11.68;;;;;;;8.63;86.82;102227.84;5073325;28;20081;-62
2021/10/18 03:19:38;;;;;;;17.92;10.80;;;;;;;8.57;87.21;102229.66;5075354;28;20464;-62
2021/10/18 03:22:03;;;;;;;23.83;11.55;;;;;;;8.52;87.07;102238.53;5075065;28;20021;-62
2021/10/18 03:24:28;;;;;;;18.83;11.77;;;;;;;8.48;87.63;102238.59;5075197;28;20123;-62
2021/10/18 03:26:53;;;;;;;18.83;12.07;;;;;;;8.45;87.91;102228.94;5072517;28;20139;-62
2021/10/18 03:29:19;;;;;;;19.52;12.75;;;;;;;8.43;88.55;102237.75;5073144;28;20509;-62
2021/10/18 03:31:44;;;;;;;18.75;12.15;;;;;;;8.39;88.94;102230.75;5074966;28;20395;-62
2021/10/18 03:34:09;;;;;;;22.80;12.35;;;;;;;8.38;88.79;102237.81;5075156;28;20421;-63
2021/10/18 03:36:35;;;;;;;18.10;12.15;;;;;;;8.37;89.24;102234.28;5072551;28;20024;-60
2021/10/18 03:39:00;;;;;;;19.35;12.82;;;;;;;8.35;89.31;102233.44;5063872;28;20033;-62
2021/10/18 03:41:25;;;;;;;20.90;13.38;;;;;;;8.30;89.49;102227.34;5054643;28;20055;-62
2021/10/18 03:43:51;;;;;;;23.40;12.82;;;;;;;8.30;89.20;102230.00;5054488;28;20082;-62
2021/10/18 03:46:16;;;;;;;25.05;13.18;;;;;;;8.27;90.26;102230.03;5054593;28;20052;-62
2021/10/18 03:48:41;;;;;;;17.52;12.23;;;;;;;8.25;89.79;102234.47;5056749;28;20100;-62
2021/10/18 03:51:07;;;;;;;23.25;13.02;;;;;;;8.25;89.48;102250.31;5074663;28;20029;-62
2021/10/18 03:53:32;;;;;;;24.88;14.07;;;;;;;8.27;89.91;102235.28;5074196;28;20039;-62
2021/10/18 03:55:57;;;;;;;22.67;14.23;;;;;;;8.28;89.93;102233.56;5074517;28;20024;-62
2021/10/18 03:58:23;;;;;;;21.30;13.60;;;;;;;8.28;89.67;102237.06;5071921;28;20028;-62
2021/10/18 04:00:48;;;;;;;22.90;13.77;;;;;;;8.28;89.59;102241.47;5072631;28;20059;-62
2021/10/18 04:03:13;;;;;;;22.73;14.30;;;;;;;8.31;89.69;102247.59;5073648;28;20043;-62
2021/10/18 04:05:39;;;;;;;24.30;14.27;;;;;;;8.34;89.47;102247.53;5071732;28;20452;-62
2021/10/18 04:08:04;;;;;;;24.40;13.80;;;;;;;8.36;89.15;102245.75;5056242;28;20029;-62
2021/10/18 04:10:32;;;;;;;23.35;13.80;;;;;;;8.38;88.79;102243.09;5054314;28;20021;-62
2021/10/18 04:12:59;;;;;;;23.23;13.85;;;;;;;8.37;88.67;102239.56;5054376;28;20024;-61
2021/10/18 04:15:24;;;;;;;24.92;14.43;;;;;;;8.39;88.73;102236.03;5053937;28;20040;-62
2021/10/18 04:17:50;;;;;;;25.92;13.70;;;;;;;8.36;88.57;102231.66;5053934;28;20025;-61
2021/10/18 04:20:15;;;;;;;21.73;13.57;;;;;;;8.34;88.63;102230.84;5068892;28;20039;-61
2021/10/18 04:22:42;;;;;;;25.02;14.48;;;;;;;8.33;88.98;102235.22;5074270;28;20087;-61
2021/10/18 04:25:07;;;;;;;24.00;14.10;;;;;;;8.33;88.42;102237.88;5073988;28;20077;-61
2021/10/18 04:27:32;;;;;;;25.92;14.68;;;;;;;8.30;88.84;102240.56;5073625;28;20045;-61
2021/10/18 04:29:58;;;;;;;27.42;15.60;;;;;;;8.26;88.98;102225.66;5069178;28;20032;-62
2021/10/18 04:32:23;;;;;;;27.15;15.60;;;;;;;8.25;89.09;102233.56;5073944;28;20025;-62
2021/10/18 04:34:48;;;;;;;24.35;15.40;;;;;;;8.24;89.03;102234.50;5073458;28;20052;-62
2021/10/18 04:37:14;;;;;;;23.42;15.02;;;;;;;8.23;88.95;102236.25;5073531;28;20472;-60
2021/10/18 04:39:39;;;;;;;25.33;14.98;;;;;;;8.24;89.02;102247.69;5071478;28;20075;-62
2021/10/18 04:42:04;;;;;;;29.05;15.75;;;;;;;8.23;88.92;102243.28;5071567;28;20036;-63
2021/10/18 04:44:30;;;;;;;25.00;16.17;;;;;;;8.22;89.53;102249.47;5073155;28;20516;-61
2021/10/18 04:46:55;;;;;;;23.65;15.30;;;;;;;8.18;89.32;102246.88;5073563;28;20036;-62
2021/10/18 04:49:21;;;;;;;25.80;15.80;;;;;;;8.19;89.74;102247.72;5073333;28;20025;-63
2021/10/18 04:51:46;;;;;;;25.25;15.27;;;;;;;8.21;89.25;102256.50;5069059;28;20134;-63
2021/10/18 04:54:13;;;;;;;26.45;15.07;;;;;;;8.20;89.19;102260.03;5073222;28;20020;-63
2021/10/18 04:56:38;;;;;;;25.33;15.60;;;;;;;8.18;89.48;102262.69;5073126;28;20025;-62
2021/10/18 04:59:04;;;;;;;25.55;14.38;;;;;;;8.19;89.43;102260.91;5072968;28;20120;-63
2021/10/18 05:01:29;;;;;;;23.25;14.70;;;;;;;8.19;89.29;102253.00;5065767;28;20048;-61
2021/10/18 05:03:54;;;;;;;26.08;15.00;;;;;;;8.19;89.48;102260.91;5053639;28;20436;-60
2021/10/18 05:06:20;;;;;;;25.38;15.27;;;;;;;8.17;89.56;102258.31;5054726;28;20028;-60
2021/10/18 05:08:45;;;;;;;26.05;15.07;;;;;;;8.18;89.12;102257.41;5052877;28;20481;-59
2021/10/18 05:11:10;;;;;;;23.83;15.15;;;;;;;8.15;89.06;102253.94;5056085;28;20020;-61
2021/10/18 05:13:35;;;;;;;23.75;14.90;;;;;;;8.12;89.63;102246.03;5069492;28;20407;-61
2021/10/18 05:16:01;;;;;;;26.50;16.73;;;;;;;8.14;90.17;102246.91;5072461;28;20499;-60
2021/10/18 05:18:26;;;;;;;29.73;16.58;;;;;;;8.13;90.26;102255.72;5058638;28;20020;-61
2021/10/18 05:20:52;;;;;;;25.70;16.08;;;;;;;8.11;90.18;102252.25;5072532;28;20025;-62
2021/10/18 05:23:17;;;;;;;26.02;16.42;;;;;;;8.13;90.17;102266.28;5068109;28;20464;-61
2021/10/18 05:25:44;;;;;;;29.38;15.90;;;;;;;8.12;89.88;102265.41;5058383;28;20048;-61
2021/10/18 05:28:09;;;;;;;27.10;16.23;;;;;;;8.15;89.94;102272.41;5052562;28;20040;-63
2021/10/18 05:30:35;;;;;;;26.77;16.25;;;;;;;8.14;89.56;102270.66;5052338;28;20025;-61
2021/10/18 05:33:01;;;;;;;22.90;15.25;;;;;;;8.14;89.51;102273.31;5051952;28;20033;-61
2021/10/18 05:35:27;;;;;;;26.52;15.98;;;;;;;8.13;89.68;102272.44;5052397;28;20020;-61
2021/10/18 05:37:53;;;;;;;27.02;16.00;;;;;;;8.11;89.53;102268.06;5052383;28;20047;-61
2021/10/18 05:40:20;;;;;;;25.38;15.93;;;;;;;8.12;89.30;102265.41;5051708;28;20456;-62
2021/10/18 05:42:46;;;;;;;34.63;17.50;;;;;;;8.12;89.64;102259.25;5052098;28;20443;-62
2021/10/18 05:45:11;;;;;;;30.52;16.98;;;;;;;8.12;89.70;102259.25;5060209;28;20059;-61
2021/10/18 05:47:53;;;;;;;29.80;17.02;;;;;;;8.13;89.77;102256.59;5051821;28;20033;-62
2021/10/18 05:50:19;;;;;;;26.75;16.05;;;;;;;8.12;89.53;102256.59;5052382;28;20021;-62
2021/10/18 05:52:44;;;;;;;28.33;16.65;;;;;;;8.14;89.71;102260.09;5055800;28;20075;-61
2021/10/18 05:55:09;;;;;;;25.92;15.90;;;;;;;8.15;89.54;102260.06;5057719;28;20380;-62
2021/10/18 05:57:52;;;;;;;25.48;15.68;;;;;;;8.18;89.22;102253.88;5057078;28;20032;-62
2021/10/18 06:00:18;;;;;;;26.42;14.90;;;;;;;8.25;89.01;102263.50;5057977;28;20032;-61
2021/10/18 06:02:44;;;;;;;26.88;15.55;;;;;;;8.28;88.52;102252.88;5052290;28;20017;-62
2021/10/18 06:05:09;;;;;;;30.15;15.82;;;;;;;8.31;88.07;102251.97;5052112;28;20091;-61
2021/10/18 06:07:35;;;;;;;26.55;16.17;;;;;;;8.31;87.89;102247.59;5071978;28;20112;-61
2021/10/18 06:10:00;;;;;;;23.67;14.77;;;;;;;8.34;87.95;102242.25;5059865;28;20025;-62
2021/10/18 06:12:26;;;;;;;25.52;16.30;;;;;;;8.33;88.05;102251.06;5051816;28;20033;-62
2021/10/18 06:14:51;;;;;;;26.15;15.40;;;;;;;8.33;88.15;102261.63;5052867;28;20029;-62
2021/10/18 06:17:16;;;;;;;28.08;15.82;;;;;;;8.34;88.14;102265.16;5052904;28;20449;-61
2021/10/18 06:19:41;;;;;;;26.20;15.93;;;;;;;8.34;88.29;102259.88;5051857;28;20476;-61
2021/10/18 06:22:07;;;;;;;23.95;14.75;;;;;;;8.34;88.44;102257.22;5051899;28;20033;-61
2021/10/18 06:24:32;;;;;;;27.73;16.30;;;;;;;8.38;88.09;102261.56;5059935;28;20492;-61
2021/10/18 06:26:57;;;;;;;25.15;15.50;;;;;;;8.37;87.87;102258.03;5058028;28;20147;-61
2021/10/18 06:29:25;;;;;;;27.98;14.38;;;;;;;8.41;87.72;102250.97;5055849;28;20377;-62
2021/10/18 06:31:50;;;;;;;28.45;15.15;;;;;;;8.43;87.80;102264.16;5051960;28;20029;-62
2021/10/18 06:34:15;;;;;;;29.35;15.65;;;;;;;8.44;87.57;102260.59;5074882;28;20043;-61
2021/10/18 06:36:41;;;;;;;27.80;15.23;;;;;;;8.47;87.30;102264.13;5075498;28;20033;-61
2021/10/18 06:39:06;;;;;;;26.50;15.80;;;;;;;8.53;87.59;102268.47;5074158;28;20503;-60
2021/10/18 06:41:31;;;;;;;26.95;15.48;;;;;;;8.58;86.71;102276.28;5071317;28;20039;-62
2021/10/18 06:43:56;;;;;;;27.38;15.40;;;;;;;8.63;86.69;102274.47;5075573;28;20036;-60
2021/10/18 06:46:22;;;;;;;24.52;15.10;;;;;;;8.64;86.91;102270.94;5074500;28;20029;-59
2021/10/18 06:48:47;;;;;;;27.70;15.75;;;;;;;8.66;86.58;102272.66;5085977;28;20032;-62
2021/10/18 06:51:13;;;;;;;25.30;15.77;;;;;;;8.69;86.89;102275.25;5058786;28;20029;-62
2021/10/18 06:53:39;;;;;;;27.70;15.60;;;;;;;8.74;86.39;102272.56;5075823;28;20103;-61
2021/10/18 06:56:06;;;;;;;27.83;15.48;;;;;;;8.77;85.92;102272.53;5075634;28;20115;-61
2021/10/18 06:58:32;;;;;;;31.63;15.15;;;;;;;8.79;85.92;102270.72;5073001;28;20016;-61
2021/10/18 07:00:58;;;;;;;26.60;14.75;;;;;;;8.86;85.58;102266.22;5066069;28;20111;-60
2021/10/18 07:03:23;;;;;;;27.88;15.75;;;;;;;8.87;85.51;102278.53;5075537;28;20107;-61
2021/10/18 07:05:48;;;;;;;27.95;15.48;;;;;;;8.91;85.70;102272.31;5075482;28;20473;-61
2021/10/18 07:08:16;;;;;;;28.38;15.73;;;;;;;8.96;85.18;102269.59;5075432;28;20059;-61
2021/10/18 07:10:41;;;;;;;28.20;15.73;;;;;;;8.99;84.92;102273.06;5075556;28;20512;-62
2021/10/18 07:13:09;;;;;;;28.48;15.52;;;;;;;9.00;84.68;102281.88;5075500;28;20075;-60
2021/10/18 07:15:35;;;;;;;26.65;15.32;;;;;;;9.05;84.72;102298.53;5074334;28;20021;-61
2021/10/18 07:18:01;;;;;;;27.45;15.27;;;;;;;9.15;84.06;102307.19;5074580;28;20030;-61
2021/10/18 07:20:26;;;;;;;24.05;15.50;;;;;;;9.19;84.12;102303.59;5074557;28;20074;-61
2021/10/18 07:22:56;;;;;;;26.88;15.02;;;;;;;9.24;83.48;102311.47;5074154;28;20028;-62
2021/10/18 07:25:21;;;;;;;29.17;15.68;;;;;;;9.30;83.97;102314.03;5075469;28;20021;-62
2021/10/18 07:27:46;;;;;;;26.45;15.85;;;;;;;9.37;82.79;102314.78;5074701;28;20090;-60
2021/10/18 07:30:12;;;;;;;26.85;15.30;;;;;;;9.44;83.17;102309.38;5074624;28;20373;-61
2021/10/18 07:32:42;;;;;;;26.23;14.90;;;;;;;9.51;82.01;102307.50;5074290;28;20472;-61
2021/10/18 07:35:08;;;;;;;25.50;14.75;;;;;;;9.58;82.33;102305.63;5074471;28;20028;-60
2021/10/18 07:37:33;;;;;;;24.58;15.55;;;;;;;9.65;81.79;102310.81;5073583;28;20350;-62
2021/10/18 07:39:59;;;;;;;25.52;14.32;;;;;;;9.68;81.06;102315.16;5074300;28;20111;-62
2021/10/18 07:42:24;;;;;;;25.10;14.57;;;;;;;9.75;81.06;102319.44;5074433;28;20027;-60
2021/10/18 07:44:49;;;;;;;28.00;14.68;;;;;;;9.82;80.54;102326.38;5074447;28;20070;-60
2021/10/18 07:47:15;;;;;;;24.27;15.48;;;;;;;9.84;80.67;102307.81;5074604;28;20063;-61
2021/10/18 07:49:42;;;;;;;25.08;15.50;;;;;;;9.90;80.69;102314.75;5071569;28;20052;-61
2021/10/18 07:52:11;;;;;;;26.15;15.45;;;;;;;9.93;80.42;102318.22;5073274;28;20075;-60
2021/10/18 07:54:38;;;;;;;26.35;15.63;;;;;;;9.99;80.34;102317.25;5073578;28;20043;-60
2021/10/18 07:57:03;;;;;;;25.00;15.48;;;;;;;10.07;80.36;102312.66;5073489;28;20056;-61
2021/10/18 07:59:29;;;;;;;23.42;15.40;;;;;;;10.16;79.88;102308.97;5074525;28;20230;-60
2021/10/18 08:01:55;;;;;;;25.40;14.65;;;;;;;10.26;79.34;102317.63;5073430;28;20377;-60
2021/10/18 08:04:21;;;;;;;23.58;14.60;;;;;;;10.33;78.96;102309.53;5074017;28;20032;-62
2021/10/18 08:06:46;;;;;;;24.60;15.32;;;;;;;10.39;79.05;102303.25;5074165;28;20024;-61
2021/10/18 08:09:12;;;;;;;26.10;15.13;;;;;;;10.48;78.52;102307.50;5073627;28;20407;-62
2021/10/18 08:11:38;;;;;;;25.38;14.55;;;;;;;10.48;78.17;102305.69;5073545;28;20035;-60
2021/10/18 08:14:04;;;;;;;28.90;15.02;;;;;;;10.54;78.34;102303.81;5074172;28;20033;-62
2021/10/18 08:16:29;;;;;;;24.33;14.25;;;;;;;10.54;78.19;102311.78;5072917;28;20021;-62
2021/10/18 08:18:54;;;;;;;23.67;14.40;;;;;;;10.51;77.80;102312.72;5073701;28;20032;-61
2021/10/18 08:21:22;;;;;;;26.30;14.27;;;;;;;10.51;77.39;102310.06;5073891;28;20043;-62
2021/10/18 08:23:47;;;;;;;24.98;15.05;;;;;;;10.43;78.27;102312.00;5073577;28;20032;-62
2021/10/18 08:26:12;;;;;;;24.08;14.70;;;;;;;10.47;77.96;102305.75;5073172;28;20045;-59
2021/10/18 08:28:38;;;;;;;26.08;14.38;;;;;;;10.50;77.85;102300.41;5073409;28;20066;-60
2021/10/18 08:31:03;;;;;;;28.52;14.32;;;;;;;10.48;77.54;102300.41;5069943;28;20032;-62
2021/10/18 08:33:29;;;;;;;26.92;14.88;;;;;;;10.45;77.42;102296.97;5072145;28;20043;-61
2021/10/18 08:35:54;;;;;;;25.65;14.88;;;;;;;10.49;77.77;102293.34;5079724;28;20024;-61
2021/10/18 08:45:50;;;;;;;23.60;14.05;;;;;;;13.04;68.64;102286.63;5072835;28;20350;-62
2021/10/18 08:48:16;;;;;;;21.90;12.93;;;;;;;14.46;63.43;102272.00;5072318;28;20031;-62
2021/10/18 08:50:41;;;;;;;20.67;13.75;;;;;;;15.30;59.61;102272.25;5072685;28;20032;-62
2021/10/18 08:53:06;;;;;;;21.48;13.55;;;;;;;15.26;58.65;102273.31;5074400;28;20383;-61
2021/10/18 08:55:36;;;;;;;20.77;13.23;;;;;;;14.44;60.39;102250.75;5072952;28;20036;-63
2021/10/18 08:58:03;;;;;;;21.55;13.05;;;;;;;13.55;63.63;102260.19;5071189;28;20031;-61
2021/10/18 09:00:41;;;;;;;23.25;13.48;;;;;;;13.00;65.22;102270.84;5069145;28;20056;-60
2021/10/18 09:03:34;;;;;;;23.23;14.10;;;;;;;12.59;66.49;102258.78;5070284;28;20025;-61
2021/10/18 09:06:25;;;;;;;19.42;12.93;;;;;;;12.56;67.55;102268.66;5071213;28;20040;-60
2021/10/18 09:08:53;;;;;;;20.88;13.43;;;;;;;12.43;68.15;102257.53;5067886;28;20051;-61
2021/10/18 09:11:28;;;;;;;24.38;14.27;;;;;;;12.26;68.30;102258.91;5072502;28;20048;-60
2021/10/18 09:13:53;;;;;;;24.08;12.23;;;;;;;12.26;68.79;102247.41;5073345;28;20103;-61
2021/10/18 09:16:26;;;;;;;23.07;14.13;;;;;;;12.05;69.45;102244.44;5072832;28;20258;-58
2021/10/18 09:19:13;;;;;;;20.23;13.32;;;;;;;12.07;69.73;102242.63;5071869;28;20283;-61
2021/10/18 09:21:49;;;;;;;22.25;13.02;;;;;;;12.18;69.29;102230.84;5071284;28;20028;-59
2021/10/18 09:24:36;;;;;;;20.77;12.65;;;;;;;12.20;68.96;102244.91;5063610;28;20877;-61
2021/10/18 09:27:20;;;;;;;28.05;13.65;;;;;;;12.14;68.74;102245.97;5071263;28;20055;-61
2021/10/18 09:29:49;;;;;;;26.27;13.05;;;;;;;12.15;68.87;102250.38;5070462;28;20128;-62
2021/10/18 09:32:18;;;;;;;26.27;13.73;;;;;;;12.22;69.32;102253.72;5071143;28;20485;-61
2021/10/18 09:34:44;;;;;;;22.40;12.60;;;;;;;12.22;69.39;102262.53;5073055;28;20024;-61
2021/10/18 09:37:15;;;;;;;20.17;12.43;;;;;;;12.35;68.12;102265.72;5072380;28;20021;-60
2021/10/18 09:39:48;;;;;;;20.30;12.00;;;;;;;12.40;67.52;102263.78;5071980;28;20028;-60
2021/10/18 09:42:16;;;;;;;21.00;12.85;;;;;;;12.38;68.22;102265.63;5072375;28;20040;-60
2021/10/18 09:44:54;;;;;;;20.33;13.20;;;;;;;12.32;68.27;102257.00;5072292;28;20078;-60
2021/10/18 10:54:32;;;;;;;19.15;12.75;;;;;;;15.16;60.58;102198.97;4984402;28;20072;-61
2021/10/18 10:57:01;;;;;;;20.23;12.60;;;;;;;15.16;60.41;102188.28;4972619;28;20046;-60
2021/10/18 10:59:32;;;;;;;22.90;12.52;;;;;;;15.16;60.64;102190.97;4975993;28;20026;-60
2021/10/18 11:02:02;;;;;;;22.58;13.20;;;;;;;15.19;60.45;102172.16;4989427;28;20046;-60
2021/10/18 11:04:30;;;;;;;18.83;12.82;;;;;;;14.97;61.42;102164.19;5071012;28;20020;-60
2021/10/18 11:07:06;;;;;;;20.13;12.27;;;;;;;14.81;61.63;102160.44;5070812;28;20045;-60
2021/10/18 11:09:54;;;;;;;19.92;12.45;;;;;;;14.59;61.50;102170.16;5071615;28;20089;-62
2021/10/18 11:12:25;;;;;;;23.90;13.05;;;;;;;14.47;62.15;102177.78;5070489;28;20438;-62
2021/10/18 11:14:57;;;;;;;20.02;12.13;;;;;;;14.28;62.87;102165.19;5091168;28;20071;-62
2021/10/18 11:17:24;;;;;;;20.80;12.20;;;;;;;14.22;63.20;102165.41;5076716;28;20030;-61
2021/10/18 11:20:12;;;;;;;18.98;12.13;;;;;;;14.21;62.93;102169.03;5075340;28;20028;-62
2021/10/18 11:22:59;;;;;;;16.90;11.43;;;;;;;14.02;63.71;102163.53;5058144;28;20028;-62
2021/10/18 11:25:27;;;;;;;18.52;11.50;;;;;;;13.87;64.10;102168.50;5083707;28;20547;-62
2021/10/18 11:28:00;;;;;;;17.42;11.77;;;;;;;13.82;65.07;102172.28;5071892;28;20429;-63
2021/10/18 11:30:28;;;;;;;19.08;12.10;;;;;;;13.81;65.28;102165.22;5072106;28;20143;-60
2021/10/18 11:32:56;;;;;;;20.67;12.27;;;;;;;13.88;65.16;102150.75;5071574;28;20055;-60
2021/10/18 11:35:21;;;;;;;20.95;12.57;;;;;;;13.94;65.62;102139.88;5087049;28;20021;-61
2021/10/18 11:37:47;;;;;;;18.65;12.32;;;;;;;13.98;65.39;102127.28;5075147;28;20072;-61
2021/10/18 11:40:14;;;;;;;17.77;11.88;;;;;;;14.07;64.68;102122.47;5074836;28;20024;-62
2021/10/18 11:42:47;;;;;;;18.10;11.15;;;;;;;14.20;63.86;102117.53;5075949;28;20119;-62
2021/10/18 11:45:17;;;;;;;18.17;11.60;;;;;;;14.22;63.92;102120.13;5077860;28;20024;-62
2021/10/18 11:47:42;;;;;;;16.15;10.88;;;;;;;14.32;64.33;102125.97;5074657;28;20376;-62
2021/10/18 11:50:22;;;;;;;20.50;12.60;;;;;;;14.46;63.74;102107.59;5074513;28;20017;-61
2021/10/18 11:53:01;;;;;;;19.65;12.05;;;;;;;14.39;64.45;102104.34;5073590;28;20024;-61
2021/10/18 11:55:32;;;;;;;19.35;11.57;;;;;;;14.31;63.38;102095.81;5074496;28;20039;-61
2021/10/18 11:57:59;;;;;;;18.13;11.80;;;;;;;14.26;64.00;102098.63;5074278;28;20041;-60
2021/10/18 12:00:31;;;;;;;19.98;12.00;;;;;;;14.20;64.87;102095.34;5074174;28;20353;-60
2021/10/18 12:03:00;;;;;;;22.42;12.82;;;;;;;14.25;64.36;102098.72;5074963;28;20021;-60
2021/10/18 12:05:32;;;;;;;18.13;11.93;;;;;;;14.26;64.30;102097.78;5073850;28;20020;-61
2021/10/18 12:07:58;;;;;;;19.65;11.88;;;;;;;14.23;65.18;102108.53;5069773;28;20153;-61
2021/10/18 12:10:29;;;;;;;19.67;11.73;;;;;;;14.24;64.75;102116.47;5073744;28;20027;-62
2021/10/18 12:13:09;;;;;;;19.10;11.57;;;;;;;14.33;64.09;102109.06;5054566;28;20024;-62
2021/10/18 12:15:38;;;;;;;16.83;10.38;;;;;;;14.35;64.53;102109.88;5054138;28;20440;-61
2021/10/18 12:18:05;;;;;;;16.88;10.23;;;;;;;14.51;64.53;102104.75;5066405;28;20033;-61
2021/10/18 12:20:32;;;;;;;17.25;10.45;;;;;;;14.67;62.95;102105.91;5073269;28;20036;-61
2021/10/18 12:23:06;;;;;;;16.83;10.27;;;;;;;14.65;62.79;102101.56;5073526;28;20032;-61
2021/10/18 12:25:36;;;;;;;16.13;10.40;;;;;;;14.64;63.01;102114.03;5073608;28;20029;-62
2021/10/18 12:28:25;;;;;;;18.73;9.98;;;;;;;14.67;63.02;102108.56;5073875;28;20032;-62